sensor_id;sensor_type;location;lat;lon;timestamp;P1;durP1;ratioP1;P2;durP2;ratioP2
1759;SDS011;877;46.266;20.062;2024-03-23T00:55:12;90.10;;;57.22;;
1759;SDS011;877;46.266;20.062;2024-03-23T00:57:38;84.40;;;55.67;;
1759;SDS011;877;46.266;20.062;2024-03-23T01:00:05;84.03;;;54.33;;
1759;SDS011;877;46.266;20.062;2024-03-23T01:02:34;86.37;;;53.57;;
1759;SDS011;877;46.266;20.062;2024-03-23T01:05:00;85.33;;;56.70;;
1759;SDS011;877;46.266;20.062;2024-03-23T01:07:28;85.40;;;53.47;;
1759;SDS011;877;46.266;20.062;2024-03-23T01:09:54;93.17;;;52.87;;
1759;SDS011;877;46.266;20.062;2024-03-23T01:12:20;100.97;;;58.53;;
1759;SDS011;877;46.266;20.062;2024-03-23T01:14:47;86.37;;;53.77;;
1759;SDS011;877;46.266;20.062;2024-03-23T01:17:13;85.20;;;53.93;;
1759;SDS011;877;46.266;20.062;2024-03-23T01:19:40;88.93;;;55.47;;
1759;SDS011;877;46.266;20.062;2024-03-23T01:22:07;83.37;;;56.17;;
1759;SDS011;877;46.266;20.062;2024-03-23T01:24:35;85.80;;;53.33;;
1759;SDS011;877;46.266;20.062;2024-03-23T01:27:01;85.10;;;53.73;;
1759;SDS011;877;46.266;20.062;2024-03-23T01:29:27;78.73;;;53.23;;
1759;SDS011;877;46.266;20.062;2024-03-23T01:31:54;71.40;;;50.20;;
1759;SDS011;877;46.266;20.062;2024-03-23T01:34:20;80.17;;;51.83;;
1759;SDS011;877;46.266;20.062;2024-03-23T01:36:46;78.93;;;47.93;;
1759;SDS011;877;46.266;20.062;2024-03-23T01:39:12;72.63;;;48.17;;
1759;SDS011;877;46.266;20.062;2024-03-23T01:41:39;75.80;;;49.53;;
1759;SDS011;877;46.266;20.062;2024-03-23T01:44:07;72.43;;;47.53;;
1759;SDS011;877;46.266;20.062;2024-03-23T01:46:34;66.30;;;44.77;;
1759;SDS011;877;46.266;20.062;2024-03-23T01:49:00;67.83;;;46.17;;
1759;SDS011;877;46.266;20.062;2024-03-23T01:51:26;70.13;;;46.33;;
1759;SDS011;877;46.266;20.062;2024-03-23T01:53:53;67.40;;;44.23;;
1759;SDS011;877;46.266;20.062;2024-03-23T01:56:20;63.87;;;42.40;;
1759;SDS011;877;46.266;20.062;2024-03-23T01:58:46;70.63;;;44.67;;
1759;SDS011;877;46.266;20.062;2024-03-23T02:01:12;67.00;;;44.53;;
1759;SDS011;877;46.266;20.062;2024-03-23T02:03:38;63.70;;;41.33;;
1759;SDS011;877;46.266;20.062;2024-03-23T02:06:04;67.23;;;47.43;;
1759;SDS011;877;46.266;20.062;2024-03-23T02:08:32;60.23;;;41.90;;
1759;SDS011;877;46.266;20.062;2024-03-23T02:10:59;73.00;;;42.47;;
1759;SDS011;877;46.266;20.062;2024-03-23T02:13:25;53.00;;;35.63;;
1759;SDS011;877;46.266;20.062;2024-03-23T02:15:52;55.10;;;36.67;;
1759;SDS011;877;46.266;20.062;2024-03-23T02:18:19;53.63;;;36.47;;
1759;SDS011;877;46.266;20.062;2024-03-23T02:20:46;51.93;;;35.50;;
1759;SDS011;877;46.266;20.062;2024-03-23T02:23:15;52.57;;;34.80;;
1759;SDS011;877;46.266;20.062;2024-03-23T02:25:42;50.37;;;36.70;;
1759;SDS011;877;46.266;20.062;2024-03-23T02:28:08;53.17;;;35.27;;
1759;SDS011;877;46.266;20.062;2024-03-23T02:30:34;51.58;;;36.17;;
1759;SDS011;877;46.266;20.062;2024-03-23T02:33:00;50.70;;;35.60;;
1759;SDS011;877;46.266;20.062;2024-03-23T02:35:26;55.65;;;35.22;;
1759;SDS011;877;46.266;20.062;2024-03-23T02:37:53;51.13;;;35.00;;
1759;SDS011;877;46.266;20.062;2024-03-23T02:40:21;51.22;;;36.10;;
1759;SDS011;877;46.266;20.062;2024-03-23T02:42:47;57.38;;;36.83;;
1759;SDS011;877;46.266;20.062;2024-03-23T02:45:13;62.20;;;38.23;;
1759;SDS011;877;46.266;20.062;2024-03-23T02:47:39;52.75;;;36.22;;
1759;SDS011;877;46.266;20.062;2024-03-23T02:50:05;58.00;;;37.20;;
1759;SDS011;877;46.266;20.062;2024-03-23T02:52:32;61.47;;;37.80;;
1759;SDS011;877;46.266;20.062;2024-03-23T02:54:58;54.45;;;36.83;;
1759;SDS011;877;46.266;20.062;2024-03-23T02:57:24;63.20;;;38.13;;
1759;SDS011;877;46.266;20.062;2024-03-23T02:59:50;58.42;;;38.42;;
1759;SDS011;877;46.266;20.062;2024-03-23T03:02:16;57.13;;;37.50;;
1759;SDS011;877;46.266;20.062;2024-03-23T03:04:42;55.08;;;37.03;;
1759;SDS011;877;46.266;20.062;2024-03-23T03:07:08;60.55;;;38.55;;
1759;SDS011;877;46.266;20.062;2024-03-23T03:09:34;54.73;;;37.17;;
1759;SDS011;877;46.266;20.062;2024-03-23T03:12:01;59.30;;;38.13;;
1759;SDS011;877;46.266;20.062;2024-03-23T03:14:28;54.58;;;37.42;;
1759;SDS011;877;46.266;20.062;2024-03-23T03:16:54;58.42;;;36.83;;
1759;SDS011;877;46.266;20.062;2024-03-23T03:19:20;51.70;;;36.83;;
1759;SDS011;877;46.266;20.062;2024-03-23T03:21:46;54.53;;;38.70;;
1759;SDS011;877;46.266;20.062;2024-03-23T03:24:16;62.28;;;41.80;;
1759;SDS011;877;46.266;20.062;2024-03-23T03:26:42;60.40;;;38.13;;
1759;SDS011;877;46.266;20.062;2024-03-23T03:29:08;61.15;;;40.30;;
1759;SDS011;877;46.266;20.062;2024-03-23T03:31:35;61.90;;;39.33;;
1759;SDS011;877;46.266;20.062;2024-03-23T03:34:01;64.78;;;39.13;;
1759;SDS011;877;46.266;20.062;2024-03-23T03:36:27;58.40;;;39.22;;
1759;SDS011;877;46.266;20.062;2024-03-23T03:38:54;63.72;;;41.70;;
1759;SDS011;877;46.266;20.062;2024-03-23T03:41:20;62.53;;;39.93;;
1759;SDS011;877;46.266;20.062;2024-03-23T03:43:46;64.13;;;39.45;;
1759;SDS011;877;46.266;20.062;2024-03-23T03:46:12;56.90;;;37.90;;
1759;SDS011;877;46.266;20.062;2024-03-23T03:48:38;54.60;;;38.00;;
1759;SDS011;877;46.266;20.062;2024-03-23T03:51:04;55.00;;;37.20;;
1759;SDS011;877;46.266;20.062;2024-03-23T03:53:30;61.10;;;40.08;;
1759;SDS011;877;46.266;20.062;2024-03-23T03:56:00;60.70;;;38.72;;
1759;SDS011;877;46.266;20.062;2024-03-23T03:58:27;60.22;;;38.55;;
1759;SDS011;877;46.266;20.062;2024-03-23T04:00:53;57.47;;;40.08;;
1759;SDS011;877;46.266;20.062;2024-03-23T04:03:19;63.90;;;39.33;;
1759;SDS011;877;46.266;20.062;2024-03-23T04:05:52;62.07;;;39.23;;
1759;SDS011;877;46.266;20.062;2024-03-23T04:08:18;60.50;;;40.03;;
1759;SDS011;877;46.266;20.062;2024-03-23T04:10:44;58.95;;;37.95;;
1759;SDS011;877;46.266;20.062;2024-03-23T04:13:11;58.70;;;38.38;;
1759;SDS011;877;46.266;20.062;2024-03-23T04:15:37;56.20;;;39.15;;
1759;SDS011;877;46.266;20.062;2024-03-23T04:18:03;57.58;;;39.33;;
1759;SDS011;877;46.266;20.062;2024-03-23T04:20:29;58.27;;;39.00;;
1759;SDS011;877;46.266;20.062;2024-03-23T04:22:55;51.37;;;36.60;;
1759;SDS011;877;46.266;20.062;2024-03-23T04:25:21;53.47;;;37.05;;
1759;SDS011;877;46.266;20.062;2024-03-23T04:27:48;57.03;;;35.20;;
1759;SDS011;877;46.266;20.062;2024-03-23T04:30:14;53.72;;;36.50;;
1759;SDS011;877;46.266;20.062;2024-03-23T04:32:40;52.45;;;36.92;;
1759;SDS011;877;46.266;20.062;2024-03-23T04:35:07;54.85;;;36.30;;
1759;SDS011;877;46.266;20.062;2024-03-23T04:37:36;53.22;;;34.85;;
1759;SDS011;877;46.266;20.062;2024-03-23T04:40:03;50.20;;;35.40;;
1759;SDS011;877;46.266;20.062;2024-03-23T04:42:30;51.58;;;34.08;;
1759;SDS011;877;46.266;20.062;2024-03-23T04:44:56;55.17;;;36.75;;
1759;SDS011;877;46.266;20.062;2024-03-23T04:47:22;53.47;;;33.60;;
1759;SDS011;877;46.266;20.062;2024-03-23T04:49:48;53.53;;;35.10;;
1759;SDS011;877;46.266;20.062;2024-03-23T04:52:14;59.57;;;36.10;;
1759;SDS011;877;46.266;20.062;2024-03-23T04:54:40;57.60;;;36.95;;
1759;SDS011;877;46.266;20.062;2024-03-23T04:57:07;60.05;;;39.20;;
1759;SDS011;877;46.266;20.062;2024-03-23T04:59:33;50.83;;;34.75;;
1759;SDS011;877;46.266;20.062;2024-03-23T05:01:59;52.38;;;37.10;;
1759;SDS011;877;46.266;20.062;2024-03-23T05:04:26;62.25;;;37.13;;
1759;SDS011;877;46.266;20.062;2024-03-23T05:06:52;55.65;;;35.63;;
1759;SDS011;877;46.266;20.062;2024-03-23T05:09:18;54.42;;;35.15;;
1759;SDS011;877;46.266;20.062;2024-03-23T05:11:45;67.10;;;39.20;;
1759;SDS011;877;46.266;20.062;2024-03-23T05:14:14;57.25;;;38.67;;
1759;SDS011;877;46.266;20.062;2024-03-23T05:16:40;51.17;;;36.10;;
1759;SDS011;877;46.266;20.062;2024-03-23T05:19:06;49.53;;;35.42;;
1759;SDS011;877;46.266;20.062;2024-03-23T05:21:32;49.43;;;32.93;;
1759;SDS011;877;46.266;20.062;2024-03-23T05:23:58;55.63;;;35.03;;
1759;SDS011;877;46.266;20.062;2024-03-23T05:26:24;52.37;;;35.30;;
1759;SDS011;877;46.266;20.062;2024-03-23T05:28:50;55.90;;;35.17;;
1759;SDS011;877;46.266;20.062;2024-03-23T05:31:27;51.37;;;34.17;;
1759;SDS011;877;46.266;20.062;2024-03-23T05:33:54;50.70;;;34.80;;
1759;SDS011;877;46.266;20.062;2024-03-23T05:36:20;53.93;;;36.40;;
1759;SDS011;877;46.266;20.062;2024-03-23T05:38:46;48.80;;;33.60;;
1759;SDS011;877;46.266;20.062;2024-03-23T05:41:13;45.17;;;30.10;;
1759;SDS011;877;46.266;20.062;2024-03-23T05:43:39;45.43;;;30.27;;
1759;SDS011;877;46.266;20.062;2024-03-23T05:46:05;50.57;;;35.53;;
1759;SDS011;877;46.266;20.062;2024-03-23T05:48:32;47.93;;;32.37;;
1759;SDS011;877;46.266;20.062;2024-03-23T05:50:59;48.42;;;32.83;;
1759;SDS011;877;46.266;20.062;2024-03-23T05:53:25;57.03;;;34.13;;
1759;SDS011;877;46.266;20.062;2024-03-23T05:55:59;47.57;;;32.57;;
1759;SDS011;877;46.266;20.062;2024-03-23T05:58:26;48.63;;;34.30;;
1759;SDS011;877;46.266;20.062;2024-03-23T06:00:59;47.40;;;33.23;;
1759;SDS011;877;46.266;20.062;2024-03-23T06:03:26;45.77;;;32.67;;
1759;SDS011;877;46.266;20.062;2024-03-23T06:05:52;43.53;;;29.33;;
1759;SDS011;877;46.266;20.062;2024-03-23T06:08:20;42.80;;;28.60;;
1759;SDS011;877;46.266;20.062;2024-03-23T06:10:47;45.53;;;30.30;;
1759;SDS011;877;46.266;20.062;2024-03-23T06:13:14;41.97;;;31.47;;
1759;SDS011;877;46.266;20.062;2024-03-23T06:15:40;41.47;;;29.30;;
1759;SDS011;877;46.266;20.062;2024-03-23T06:18:06;41.00;;;26.60;;
1759;SDS011;877;46.266;20.062;2024-03-23T06:20:35;47.27;;;31.80;;
1759;SDS011;877;46.266;20.062;2024-03-23T06:23:01;42.90;;;28.37;;
1759;SDS011;877;46.266;20.062;2024-03-23T06:25:28;42.77;;;29.97;;
1759;SDS011;877;46.266;20.062;2024-03-23T06:27:55;42.53;;;29.60;;
1759;SDS011;877;46.266;20.062;2024-03-23T06:30:22;37.87;;;29.73;;
1759;SDS011;877;46.266;20.062;2024-03-23T06:32:48;41.93;;;30.50;;
1759;SDS011;877;46.266;20.062;2024-03-23T06:35:14;45.23;;;31.53;;
1759;SDS011;877;46.266;20.062;2024-03-23T06:37:40;39.90;;;28.90;;
1759;SDS011;877;46.266;20.062;2024-03-23T06:40:07;40.27;;;27.80;;
1759;SDS011;877;46.266;20.062;2024-03-23T06:42:35;39.97;;;27.20;;
1759;SDS011;877;46.266;20.062;2024-03-23T06:45:01;39.23;;;27.37;;
1759;SDS011;877;46.266;20.062;2024-03-23T06:47:28;39.47;;;27.40;;
1759;SDS011;877;46.266;20.062;2024-03-23T06:49:55;40.70;;;29.97;;
1759;SDS011;877;46.266;20.062;2024-03-23T06:52:21;40.57;;;29.37;;
1759;SDS011;877;46.266;20.062;2024-03-23T06:54:47;38.83;;;26.53;;
1759;SDS011;877;46.266;20.062;2024-03-23T06:57:13;39.97;;;26.70;;
1759;SDS011;877;46.266;20.062;2024-03-23T06:59:39;34.13;;;27.57;;
1759;SDS011;877;46.266;20.062;2024-03-23T07:02:05;34.63;;;26.40;;
1759;SDS011;877;46.266;20.062;2024-03-23T07:04:33;37.57;;;26.80;;
1759;SDS011;877;46.266;20.062;2024-03-23T07:06:59;33.50;;;26.57;;
1759;SDS011;877;46.266;20.062;2024-03-23T07:09:27;33.67;;;25.37;;
1759;SDS011;877;46.266;20.062;2024-03-23T07:11:56;33.80;;;25.60;;
1759;SDS011;877;46.266;20.062;2024-03-23T07:14:22;36.10;;;24.13;;
1759;SDS011;877;46.266;20.062;2024-03-23T07:16:50;33.03;;;25.93;;
1759;SDS011;877;46.266;20.062;2024-03-23T07:19:16;35.40;;;25.10;;
1759;SDS011;877;46.266;20.062;2024-03-23T07:21:43;28.10;;;23.67;;
1759;SDS011;877;46.266;20.062;2024-03-23T07:24:09;33.87;;;23.40;;
1759;SDS011;877;46.266;20.062;2024-03-23T07:26:35;29.13;;;21.20;;
1759;SDS011;877;46.266;20.062;2024-03-23T07:29:03;30.17;;;21.83;;
1759;SDS011;877;46.266;20.062;2024-03-23T07:31:29;37.60;;;25.17;;
1759;SDS011;877;46.266;20.062;2024-03-23T07:33:55;31.93;;;23.87;;
1759;SDS011;877;46.266;20.062;2024-03-23T07:36:21;28.87;;;23.77;;
1759;SDS011;877;46.266;20.062;2024-03-23T07:38:47;28.93;;;22.50;;
1759;SDS011;877;46.266;20.062;2024-03-23T07:41:17;36.13;;;23.20;;
1759;SDS011;877;46.266;20.062;2024-03-23T07:43:44;29.03;;;21.30;;
1759;SDS011;877;46.266;20.062;2024-03-23T07:46:10;29.10;;;22.90;;
1759;SDS011;877;46.266;20.062;2024-03-23T07:48:39;26.27;;;22.20;;
1759;SDS011;877;46.266;20.062;2024-03-23T07:51:08;28.20;;;21.27;;
1759;SDS011;877;46.266;20.062;2024-03-23T07:53:34;28.83;;;20.47;;
1759;SDS011;877;46.266;20.062;2024-03-23T07:56:04;30.00;;;22.63;;
1759;SDS011;877;46.266;20.062;2024-03-23T07:58:30;25.50;;;21.17;;
1759;SDS011;877;46.266;20.062;2024-03-23T08:01:01;31.90;;;21.70;;
1759;SDS011;877;46.266;20.062;2024-03-23T08:03:29;32.13;;;21.83;;
1759;SDS011;877;46.266;20.062;2024-03-23T08:05:56;23.50;;;20.73;;
1759;SDS011;877;46.266;20.062;2024-03-23T08:08:22;25.03;;;21.10;;
1759;SDS011;877;46.266;20.062;2024-03-23T08:10:51;23.93;;;21.00;;
1759;SDS011;877;46.266;20.062;2024-03-23T08:13:18;26.07;;;21.03;;
1759;SDS011;877;46.266;20.062;2024-03-23T08:15:45;21.63;;;18.90;;
1759;SDS011;877;46.266;20.062;2024-03-23T08:18:11;22.93;;;18.70;;
1759;SDS011;877;46.266;20.062;2024-03-23T08:20:38;23.87;;;18.63;;
1759;SDS011;877;46.266;20.062;2024-03-23T08:23:06;24.17;;;19.73;;
1759;SDS011;877;46.266;20.062;2024-03-23T08:25:32;18.43;;;16.30;;
1759;SDS011;877;46.266;20.062;2024-03-23T08:27:58;20.60;;;16.83;;
1759;SDS011;877;46.266;20.062;2024-03-23T08:30:25;21.10;;;18.63;;
1759;SDS011;877;46.266;20.062;2024-03-23T08:32:51;21.47;;;16.67;;
1759;SDS011;877;46.266;20.062;2024-03-23T08:35:17;24.47;;;17.17;;
1759;SDS011;877;46.266;20.062;2024-03-23T08:37:45;19.90;;;16.03;;
1759;SDS011;877;46.266;20.062;2024-03-23T08:40:11;22.97;;;17.30;;
1759;SDS011;877;46.266;20.062;2024-03-23T08:42:37;18.13;;;15.33;;
1759;SDS011;877;46.266;20.062;2024-03-23T08:45:05;23.93;;;15.60;;
1759;SDS011;877;46.266;20.062;2024-03-23T08:47:34;21.80;;;16.00;;
1759;SDS011;877;46.266;20.062;2024-03-23T08:50:01;20.17;;;16.03;;
1759;SDS011;877;46.266;20.062;2024-03-23T08:52:27;22.43;;;16.13;;
1759;SDS011;877;46.266;20.062;2024-03-23T08:54:54;20.00;;;14.90;;
1759;SDS011;877;46.266;20.062;2024-03-23T08:57:22;19.17;;;15.07;;
1759;SDS011;877;46.266;20.062;2024-03-23T08:59:48;15.87;;;14.10;;
1759;SDS011;877;46.266;20.062;2024-03-23T09:02:14;18.60;;;15.27;;
1759;SDS011;877;46.266;20.062;2024-03-23T09:04:40;19.07;;;14.53;;
1759;SDS011;877;46.266;20.062;2024-03-23T09:07:06;21.90;;;15.50;;
1759;SDS011;877;46.266;20.062;2024-03-23T09:09:33;18.20;;;13.50;;
1759;SDS011;877;46.266;20.062;2024-03-23T09:11:59;44.13;;;12.00;;
1759;SDS011;877;46.266;20.062;2024-03-23T09:14:25;18.80;;;12.80;;
1759;SDS011;877;46.266;20.062;2024-03-23T09:16:51;16.57;;;11.60;;
1759;SDS011;877;46.266;20.062;2024-03-23T09:19:17;18.50;;;13.50;;
1759;SDS011;877;46.266;20.062;2024-03-23T09:21:43;16.37;;;11.67;;
1759;SDS011;877;46.266;20.062;2024-03-23T09:24:10;17.70;;;12.27;;
1759;SDS011;877;46.266;20.062;2024-03-23T09:26:37;16.33;;;12.27;;
1759;SDS011;877;46.266;20.062;2024-03-23T09:29:03;15.63;;;12.50;;
1759;SDS011;877;46.266;20.062;2024-03-23T09:31:29;18.10;;;13.60;;
1759;SDS011;877;46.266;20.062;2024-03-23T09:33:57;16.67;;;11.93;;
1759;SDS011;877;46.266;20.062;2024-03-23T09:36:23;19.40;;;13.97;;
1759;SDS011;877;46.266;20.062;2024-03-23T09:38:49;17.60;;;13.10;;
1759;SDS011;877;46.266;20.062;2024-03-23T09:41:15;17.80;;;13.03;;
1759;SDS011;877;46.266;20.062;2024-03-23T09:43:41;14.67;;;12.27;;
1759;SDS011;877;46.266;20.062;2024-03-23T09:46:08;18.17;;;13.03;;
1759;SDS011;877;46.266;20.062;2024-03-23T09:48:34;15.07;;;11.97;;
1759;SDS011;877;46.266;20.062;2024-03-23T09:51:01;14.87;;;12.90;;
1759;SDS011;877;46.266;20.062;2024-03-23T09:53:28;14.50;;;11.77;;
1759;SDS011;877;46.266;20.062;2024-03-23T09:55:54;14.23;;;12.30;;
1759;SDS011;877;46.266;20.062;2024-03-23T09:58:23;21.50;;;14.73;;
1759;SDS011;877;46.266;20.062;2024-03-23T10:00:49;26.60;;;14.83;;
1759;SDS011;877;46.266;20.062;2024-03-23T10:03:15;15.93;;;14.30;;
1759;SDS011;877;46.266;20.062;2024-03-23T10:05:42;20.90;;;17.50;;
1759;SDS011;877;46.266;20.062;2024-03-23T10:10:40;15.20;;;12.00;;
1759;SDS011;877;46.266;20.062;2024-03-23T10:13:06;18.20;;;12.23;;
1759;SDS011;877;46.266;20.062;2024-03-23T10:15:36;14.57;;;12.03;;
1759;SDS011;877;46.266;20.062;2024-03-23T10:18:18;17.90;;;13.00;;
1759;SDS011;877;46.266;20.062;2024-03-23T10:20:50;17.30;;;13.73;;
1759;SDS011;877;46.266;20.062;2024-03-23T10:23:16;15.57;;;12.33;;
1759;SDS011;877;46.266;20.062;2024-03-23T10:25:43;19.60;;;12.07;;
1759;SDS011;877;46.266;20.062;2024-03-23T10:28:09;13.03;;;11.63;;
1759;SDS011;877;46.266;20.062;2024-03-23T10:30:36;16.93;;;12.87;;
1759;SDS011;877;46.266;20.062;2024-03-23T10:33:11;13.77;;;10.33;;
1759;SDS011;877;46.266;20.062;2024-03-23T10:35:38;13.20;;;9.27;;
1759;SDS011;877;46.266;20.062;2024-03-23T10:38:05;10.90;;;8.97;;
1759;SDS011;877;46.266;20.062;2024-03-23T10:40:33;13.50;;;10.70;;
1759;SDS011;877;46.266;20.062;2024-03-23T10:43:00;12.13;;;10.83;;
1759;SDS011;877;46.266;20.062;2024-03-23T10:45:26;16.47;;;13.90;;
1759;SDS011;877;46.266;20.062;2024-03-23T10:47:52;15.77;;;10.97;;
1759;SDS011;877;46.266;20.062;2024-03-23T10:50:19;13.97;;;11.00;;
1759;SDS011;877;46.266;20.062;2024-03-23T10:52:48;11.47;;;9.93;;
1759;SDS011;877;46.266;20.062;2024-03-23T10:55:15;13.73;;;10.33;;
1759;SDS011;877;46.266;20.062;2024-03-23T10:57:48;13.50;;;10.37;;
1759;SDS011;877;46.266;20.062;2024-03-23T11:00:16;13.37;;;10.47;;
1759;SDS011;877;46.266;20.062;2024-03-23T11:02:42;15.83;;;10.80;;
1759;SDS011;877;46.266;20.062;2024-03-23T11:07:50;11.60;;;9.77;;
1759;SDS011;877;46.266;20.062;2024-03-23T11:10:26;16.50;;;9.83;;
1759;SDS011;877;46.266;20.062;2024-03-23T11:12:54;12.10;;;10.53;;
1759;SDS011;877;46.266;20.062;2024-03-23T11:15:20;15.37;;;9.30;;
1759;SDS011;877;46.266;20.062;2024-03-23T11:18:05;10.83;;;7.67;;
1759;SDS011;877;46.266;20.062;2024-03-23T11:20:37;11.50;;;8.20;;
1759;SDS011;877;46.266;20.062;2024-03-23T11:23:03;10.53;;;7.73;;
1759;SDS011;877;46.266;20.062;2024-03-23T11:25:30;9.23;;;7.80;;
1759;SDS011;877;46.266;20.062;2024-03-23T11:28:08;11.43;;;8.67;;
1759;SDS011;877;46.266;20.062;2024-03-23T11:30:34;11.10;;;8.67;;
1759;SDS011;877;46.266;20.062;2024-03-23T11:33:03;10.43;;;6.57;;
1759;SDS011;877;46.266;20.062;2024-03-23T11:35:30;8.87;;;6.10;;
1759;SDS011;877;46.266;20.062;2024-03-23T11:38:07;8.37;;;6.90;;
1759;SDS011;877;46.266;20.062;2024-03-23T11:40:35;10.23;;;6.80;;
1759;SDS011;877;46.266;20.062;2024-03-23T11:43:02;8.27;;;6.37;;
1759;SDS011;877;46.266;20.062;2024-03-23T11:45:28;9.97;;;6.43;;
1759;SDS011;877;46.266;20.062;2024-03-23T11:48:05;9.23;;;5.87;;
1759;SDS011;877;46.266;20.062;2024-03-23T11:50:32;7.40;;;5.60;;
1759;SDS011;877;46.266;20.062;2024-03-23T11:55:52;11.63;;;5.43;;
1759;SDS011;877;46.266;20.062;2024-03-23T11:58:19;5.53;;;4.80;;
1759;SDS011;877;46.266;20.062;2024-03-23T12:00:58;8.57;;;5.00;;
1759;SDS011;877;46.266;20.062;2024-03-23T12:03:24;8.13;;;5.37;;
1759;SDS011;877;46.266;20.062;2024-03-23T12:05:54;9.60;;;5.30;;
1759;SDS011;877;46.266;20.062;2024-03-23T12:08:24;7.60;;;5.43;;
1759;SDS011;877;46.266;20.062;2024-03-23T12:11:10;7.40;;;5.33;;
1759;SDS011;877;46.266;20.062;2024-03-23T12:13:37;8.57;;;5.73;;
1759;SDS011;877;46.266;20.062;2024-03-23T12:16:12;6.50;;;5.27;;
1759;SDS011;877;46.266;20.062;2024-03-23T12:18:39;6.80;;;5.10;;
1759;SDS011;877;46.266;20.062;2024-03-23T12:21:05;10.00;;;5.10;;
1759;SDS011;877;46.266;20.062;2024-03-23T12:23:32;8.87;;;6.93;;
1759;SDS011;877;46.266;20.062;2024-03-23T12:25:58;9.60;;;6.20;;
1759;SDS011;877;46.266;20.062;2024-03-23T12:28:24;8.40;;;4.97;;
1759;SDS011;877;46.266;20.062;2024-03-23T12:30:52;6.33;;;4.67;;
1759;SDS011;877;46.266;20.062;2024-03-23T12:33:19;5.77;;;4.33;;
1759;SDS011;877;46.266;20.062;2024-03-23T12:35:46;8.70;;;4.93;;
1759;SDS011;877;46.266;20.062;2024-03-23T12:38:13;9.80;;;5.20;;
1759;SDS011;877;46.266;20.062;2024-03-23T12:40:39;7.30;;;5.03;;
1759;SDS011;877;46.266;20.062;2024-03-23T12:43:06;7.70;;;5.50;;
1759;SDS011;877;46.266;20.062;2024-03-23T12:45:33;9.77;;;6.53;;
1759;SDS011;877;46.266;20.062;2024-03-23T12:47:59;5.57;;;4.63;;
1759;SDS011;877;46.266;20.062;2024-03-23T12:50:25;6.80;;;4.70;;
1759;SDS011;877;46.266;20.062;2024-03-23T12:52:51;10.63;;;4.13;;
1759;SDS011;877;46.266;20.062;2024-03-23T12:55:17;5.73;;;4.43;;
1759;SDS011;877;46.266;20.062;2024-03-23T12:57:43;6.80;;;4.53;;
1759;SDS011;877;46.266;20.062;2024-03-23T13:00:10;6.20;;;4.60;;
1759;SDS011;877;46.266;20.062;2024-03-23T13:02:37;7.60;;;4.90;;
1759;SDS011;877;46.266;20.062;2024-03-23T13:05:04;70.50;;;50.53;;
1759;SDS011;877;46.266;20.062;2024-03-23T13:07:30;37.57;;;29.67;;
1759;SDS011;877;46.266;20.062;2024-03-23T13:09:57;8.00;;;4.67;;
1759;SDS011;877;46.266;20.062;2024-03-23T13:12:23;6.30;;;4.17;;
1759;SDS011;877;46.266;20.062;2024-03-23T13:14:49;8.40;;;4.83;;
1759;SDS011;877;46.266;20.062;2024-03-23T13:17:15;5.90;;;4.07;;
1759;SDS011;877;46.266;20.062;2024-03-23T13:19:41;11.47;;;10.13;;
1759;SDS011;877;46.266;20.062;2024-03-23T13:22:07;7.93;;;4.60;;
1759;SDS011;877;46.266;20.062;2024-03-23T13:24:37;7.50;;;4.33;;
1759;SDS011;877;46.266;20.062;2024-03-23T13:27:03;9.73;;;4.90;;
1759;SDS011;877;46.266;20.062;2024-03-23T13:29:33;6.77;;;4.50;;
1759;SDS011;877;46.266;20.062;2024-03-23T13:32:01;5.90;;;3.70;;
1759;SDS011;877;46.266;20.062;2024-03-23T13:34:27;4.77;;;3.90;;
1759;SDS011;877;46.266;20.062;2024-03-23T13:36:54;6.57;;;3.80;;
1759;SDS011;877;46.266;20.062;2024-03-23T13:39:23;6.40;;;4.30;;
1759;SDS011;877;46.266;20.062;2024-03-23T13:41:51;6.63;;;5.67;;
1759;SDS011;877;46.266;20.062;2024-03-23T13:44:17;6.83;;;4.40;;
1759;SDS011;877;46.266;20.062;2024-03-23T13:46:43;9.40;;;7.30;;
1759;SDS011;877;46.266;20.062;2024-03-23T13:51:54;8.43;;;3.87;;
1759;SDS011;877;46.266;20.062;2024-03-23T13:54:21;9.43;;;6.93;;
1759;SDS011;877;46.266;20.062;2024-03-23T13:56:53;5.70;;;4.20;;
1759;SDS011;877;46.266;20.062;2024-03-23T13:59:20;10.77;;;4.17;;
1759;SDS011;877;46.266;20.062;2024-03-23T14:01:48;9.30;;;5.33;;
1759;SDS011;877;46.266;20.062;2024-03-23T14:04:14;9.63;;;7.57;;
1759;SDS011;877;46.266;20.062;2024-03-23T14:06:47;7.50;;;3.80;;
1759;SDS011;877;46.266;20.062;2024-03-23T14:09:14;4.37;;;3.10;;
1759;SDS011;877;46.266;20.062;2024-03-23T14:11:45;8.33;;;3.83;;
1759;SDS011;877;46.266;20.062;2024-03-23T14:14:11;9.63;;;4.10;;
1759;SDS011;877;46.266;20.062;2024-03-23T14:16:37;5.63;;;3.47;;
1759;SDS011;877;46.266;20.062;2024-03-23T14:19:03;6.53;;;3.97;;
1759;SDS011;877;46.266;20.062;2024-03-23T14:21:32;6.23;;;3.83;;
1759;SDS011;877;46.266;20.062;2024-03-23T14:24:00;7.30;;;3.87;;
1759;SDS011;877;46.266;20.062;2024-03-23T14:26:26;5.93;;;3.70;;
1759;SDS011;877;46.266;20.062;2024-03-23T14:28:52;9.17;;;4.00;;
1759;SDS011;877;46.266;20.062;2024-03-23T14:31:18;5.37;;;3.10;;
1759;SDS011;877;46.266;20.062;2024-03-23T14:33:45;8.20;;;5.07;;
1759;SDS011;877;46.266;20.062;2024-03-23T14:36:12;7.40;;;3.83;;
1759;SDS011;877;46.266;20.062;2024-03-23T14:38:39;13.30;;;9.80;;
1759;SDS011;877;46.266;20.062;2024-03-23T14:41:05;7.90;;;3.40;;
1759;SDS011;877;46.266;20.062;2024-03-23T14:43:31;12.30;;;7.97;;
1759;SDS011;877;46.266;20.062;2024-03-23T14:48:33;8.30;;;4.13;;
1759;SDS011;877;46.266;20.062;2024-03-23T14:51:01;5.13;;;3.30;;
1759;SDS011;877;46.266;20.062;2024-03-23T14:53:30;5.70;;;3.77;;
1759;SDS011;877;46.266;20.062;2024-03-23T14:55:56;6.70;;;3.90;;
1759;SDS011;877;46.266;20.062;2024-03-23T14:58:22;7.23;;;4.10;;
1759;SDS011;877;46.266;20.062;2024-03-23T15:00:49;7.90;;;4.83;;
1759;SDS011;877;46.266;20.062;2024-03-23T15:03:16;6.50;;;3.70;;
1759;SDS011;877;46.266;20.062;2024-03-23T15:05:51;5.87;;;4.00;;
1759;SDS011;877;46.266;20.062;2024-03-23T15:08:17;12.70;;;5.63;;
1759;SDS011;877;46.266;20.062;2024-03-23T15:10:43;11.03;;;6.83;;
1759;SDS011;877;46.266;20.062;2024-03-23T15:13:09;9.17;;;5.30;;
1759;SDS011;877;46.266;20.062;2024-03-23T15:15:39;7.73;;;4.50;;
1759;SDS011;877;46.266;20.062;2024-03-23T15:18:07;7.20;;;4.87;;
1759;SDS011;877;46.266;20.062;2024-03-23T15:20:33;5.90;;;4.40;;
1759;SDS011;877;46.266;20.062;2024-03-23T15:23:01;6.50;;;3.57;;
1759;SDS011;877;46.266;20.062;2024-03-23T15:25:28;7.37;;;4.27;;
1759;SDS011;877;46.266;20.062;2024-03-23T15:27:54;6.70;;;4.23;;
1759;SDS011;877;46.266;20.062;2024-03-23T15:30:20;8.07;;;3.97;;
1759;SDS011;877;46.266;20.062;2024-03-23T15:32:46;10.93;;;4.20;;
1759;SDS011;877;46.266;20.062;2024-03-23T15:35:12;9.13;;;5.37;;
1759;SDS011;877;46.266;20.062;2024-03-23T15:37:38;6.50;;;5.10;;
1759;SDS011;877;46.266;20.062;2024-03-23T15:40:06;8.67;;;5.80;;
1759;SDS011;877;46.266;20.062;2024-03-23T15:42:32;13.87;;;10.47;;
1759;SDS011;877;46.266;20.062;2024-03-23T15:44:58;9.10;;;6.50;;
1759;SDS011;877;46.266;20.062;2024-03-23T15:47:27;9.10;;;7.00;;
1759;SDS011;877;46.266;20.062;2024-03-23T15:49:54;9.10;;;6.20;;
1759;SDS011;877;46.266;20.062;2024-03-23T15:52:21;8.37;;;7.23;;
1759;SDS011;877;46.266;20.062;2024-03-23T15:54:48;14.63;;;8.00;;
1759;SDS011;877;46.266;20.062;2024-03-23T15:57:14;11.13;;;7.40;;
1759;SDS011;877;46.266;20.062;2024-03-23T15:59:41;10.90;;;7.97;;
1759;SDS011;877;46.266;20.062;2024-03-23T16:02:07;18.50;;;10.70;;